sensor_id;sensor_type;location;lat;lon;timestamp;pressure;altitude;pressure_sealevel;temperature;humidity
73651;BME280;61944;52.538;6.108;2023-04-30T00:02:09;102278.13;;;10.33;100.00
73651;BME280;61944;52.538;6.108;2023-04-30T00:04:35;102260.06;;;10.30;100.00
73651;BME280;61944;52.538;6.108;2023-04-30T00:07:01;102274.31;;;10.71;100.00
73651;BME280;61944;52.538;6.108;2023-04-30T00:09:26;102257.56;;;10.83;100.00
73651;BME280;61944;52.538;6.108;2023-04-30T00:11:51;102266.50;;;10.64;100.00
73651;BME280;61944;52.538;6.108;2023-04-30T00:14:17;102265.34;;;10.65;100.00
73651;BME280;61944;52.538;6.108;2023-04-30T00:16:42;102270.25;;;10.68;100.00
73651;BME280;61944;52.538;6.108;2023-04-30T00:19:08;102274.22;;;10.67;100.00
73651;BME280;61944;52.538;6.108;2023-04-30T00:21:33;102274.16;;;10.55;100.00
73651;BME280;61944;52.538;6.108;2023-04-30T00:23:59;102274.56;;;10.66;100.00
73651;BME280;61944;52.538;6.108;2023-04-30T00:26:25;102274.94;;;10.76;100.00
73651;BME280;61944;52.538;6.108;2023-04-30T00:28:50;102281.72;;;10.75;100.00
73651;BME280;61944;52.538;6.108;2023-04-30T00:31:19;102280.56;;;10.55;100.00
73651;BME280;61944;52.538;6.108;2023-04-30T00:33:44;102277.50;;;10.69;100.00
73651;BME280;61944;52.538;6.108;2023-04-30T00:36:09;102262.31;;;10.70;100.00
73651;BME280;61944;52.538;6.108;2023-04-30T00:38:34;102279.88;;;10.80;99.98
73651;BME280;61944;52.538;6.108;2023-04-30T00:41:00;102280.53;;;10.76;99.96
73651;BME280;61944;52.538;6.108;2023-04-30T00:43:25;102274.47;;;10.74;100.00
73651;BME280;61944;52.538;6.108;2023-04-30T00:45:51;102279.59;;;10.72;100.00
73651;BME280;61944;52.538;6.108;2023-04-30T00:48:17;102265.94;;;10.71;100.00
73651;BME280;61944;52.538;6.108;2023-04-30T00:50:43;102278.44;;;10.73;100.00
73651;BME280;61944;52.538;6.108;2023-04-30T00:53:10;102277.97;;;10.71;100.00
73651;BME280;61944;52.538;6.108;2023-04-30T00:55:36;102278.31;;;10.70;99.53
73651;BME280;61944;52.538;6.108;2023-04-30T00:58:01;102271.13;;;10.60;99.73
73651;BME280;61944;52.538;6.108;2023-04-30T01:00:27;102267.44;;;10.68;99.26
73651;BME280;61944;52.538;6.108;2023-04-30T01:02:53;102262.50;;;10.53;100.00
73651;BME280;61944;52.538;6.108;2023-04-30T01:05:19;102274.84;;;10.52;100.00
73651;BME280;61944;52.538;6.108;2023-04-30T01:07:47;102285.38;;;10.55;100.00
73651;BME280;61944;52.538;6.108;2023-04-30T01:10:13;102284.56;;;10.54;100.00
73651;BME280;61944;52.538;6.108;2023-04-30T01:18:32;102275.84;;;10.26;100.00
73651;BME280;61944;52.538;6.108;2023-04-30T01:21:03;102285.75;;;10.24;100.00
73651;BME280;61944;52.538;6.108;2023-04-30T01:28:37;102285.63;;;10.20;100.00
73651;BME280;61944;52.538;6.108;2023-04-30T01:31:02;102277.16;;;10.08;100.00
73651;BME280;61944;52.538;6.108;2023-04-30T01:33:27;102284.81;;;10.20;100.00
73651;BME280;61944;52.538;6.108;2023-04-30T01:41:48;102277.69;;;10.22;100.00
73651;BME280;61944;52.538;6.108;2023-04-30T01:47:29;102275.38;;;10.03;100.00
73651;BME280;61944;52.538;6.108;2023-04-30T01:52:46;102279.47;;;9.85;100.00
73651;BME280;61944;52.538;6.108;2023-04-30T01:55:20;102277.16;;;9.87;100.00
73651;BME280;61944;52.538;6.108;2023-04-30T01:58:00;102276.59;;;9.93;100.00
73651;BME280;61944;52.538;6.108;2023-04-30T02:00:28;102285.00;;;9.93;100.00
73651;BME280;61944;52.538;6.108;2023-04-30T02:02:55;102285.56;;;9.78;100.00
73651;BME280;61944;52.538;6.108;2023-04-30T02:05:20;102283.13;;;9.76;100.00
73651;BME280;61944;52.538;6.108;2023-04-30T02:07:48;102291.16;;;9.78;100.00
73651;BME280;61944;52.538;6.108;2023-04-30T02:10:15;102284.91;;;9.81;100.00
73651;BME280;61944;52.538;6.108;2023-04-30T02:12:40;102281.53;;;9.67;100.00
73651;BME280;61944;52.538;6.108;2023-04-30T02:15:06;102290.28;;;9.56;100.00
73651;BME280;61944;52.538;6.108;2023-04-30T02:17:32;102288.28;;;9.66;100.00
73651;BME280;61944;52.538;6.108;2023-04-30T02:19:58;102295.50;;;9.67;100.00
73651;BME280;61944;52.538;6.108;2023-04-30T02:22:24;102281.16;;;9.47;100.00
73651;BME280;61944;52.538;6.108;2023-04-30T02:24:49;102282.28;;;9.55;100.00
73651;BME280;61944;52.538;6.108;2023-04-30T02:27:15;102278.34;;;9.47;100.00
73651;BME280;61944;52.538;6.108;2023-04-30T02:29:41;102270.13;;;9.42;100.00
73651;BME280;61944;52.538;6.108;2023-04-30T02:32:06;102283.75;;;9.52;100.00
73651;BME280;61944;52.538;6.108;2023-04-30T02:34:31;102288.78;;;9.59;100.00
73651;BME280;61944;52.538;6.108;2023-04-30T02:36:57;102295.13;;;9.47;100.00
73651;BME280;61944;52.538;6.108;2023-04-30T02:39:22;102285.78;;;9.43;100.00
73651;BME280;61944;52.538;6.108;2023-04-30T02:41:47;102288.56;;;9.43;100.00
73651;BME280;61944;52.538;6.108;2023-04-30T02:44:13;102277.56;;;9.38;100.00
73651;BME280;61944;52.538;6.108;2023-04-30T02:46:38;102287.06;;;9.46;100.00
73651;BME280;61944;52.538;6.108;2023-04-30T02:49:03;102295.69;;;9.32;100.00
73651;BME280;61944;52.538;6.108;2023-04-30T02:51:29;102288.72;;;9.38;100.00
73651;BME280;61944;52.538;6.108;2023-04-30T02:53:56;102295.50;;;9.37;100.00
73651;BME280;61944;52.538;6.108;2023-04-30T02:56:22;102295.84;;;9.27;100.00
73651;BME280;61944;52.538;6.108;2023-04-30T02:58:47;102285.03;;;9.16;100.00
73651;BME280;61944;52.538;6.108;2023-04-30T03:01:12;102277.94;;;9.28;100.00
73651;BME280;61944;52.538;6.108;2023-04-30T03:03:38;102270.41;;;9.20;100.00
73651;BME280;61944;52.538;6.108;2023-04-30T03:06:03;102269.44;;;9.15;100.00
73651;BME280;61944;52.538;6.108;2023-04-30T03:08:29;102269.13;;;9.08;100.00
73651;BME280;61944;52.538;6.108;2023-04-30T03:10:54;102267.50;;;9.07;100.00
73651;BME280;61944;52.538;6.108;2023-04-30T03:13:19;102274.41;;;9.01;100.00
73651;BME280;61944;52.538;6.108;2023-04-30T03:15:45;102271.63;;;9.01;100.00
73651;BME280;61944;52.538;6.108;2023-04-30T03:18:10;102269.00;;;9.05;100.00
73651;BME280;61944;52.538;6.108;2023-04-30T03:20:36;102273.75;;;9.04;100.00
73651;BME280;61944;52.538;6.108;2023-04-30T03:23:01;102271.31;;;9.03;100.00
73651;BME280;61944;52.538;6.108;2023-04-30T03:25:27;102276.41;;;9.01;100.00
73651;BME280;61944;52.538;6.108;2023-04-30T03:27:52;102277.22;;;9.01;100.00
73651;BME280;61944;52.538;6.108;2023-04-30T03:30:18;102274.22;;;9.06;100.00
73651;BME280;61944;52.538;6.108;2023-04-30T03:32:43;102275.88;;;9.07;99.94
73651;BME280;61944;52.538;6.108;2023-04-30T03:35:09;102276.72;;;8.99;100.00
73651;BME280;61944;52.538;6.108;2023-04-30T03:37:34;102269.19;;;8.91;100.00
73651;BME280;61944;52.538;6.108;2023-04-30T03:39:59;102273.63;;;8.92;100.00
73651;BME280;61944;52.538;6.108;2023-04-30T03:42:25;102273.78;;;8.87;100.00
73651;BME280;61944;52.538;6.108;2023-04-30T03:44:50;102274.78;;;8.91;100.00
73651;BME280;61944;52.538;6.108;2023-04-30T03:47:15;102271.81;;;8.87;100.00
73651;BME280;61944;52.538;6.108;2023-04-30T03:49:41;102274.78;;;8.91;99.75
73651;BME280;61944;52.538;6.108;2023-04-30T03:52:06;102268.72;;;8.80;100.00
73651;BME280;61944;52.538;6.108;2023-04-30T03:54:32;102261.50;;;8.79;100.00
73651;BME280;61944;52.538;6.108;2023-04-30T03:56:58;102278.25;;;8.70;100.00
73651;BME280;61944;52.538;6.108;2023-04-30T03:59:24;102288.78;;;8.73;100.00
73651;BME280;61944;52.538;6.108;2023-04-30T04:01:50;102280.41;;;8.73;100.00
73651;BME280;61944;52.538;6.108;2023-04-30T04:04:15;102279.22;;;8.74;100.00
73651;BME280;61944;52.538;6.108;2023-04-30T04:06:41;102273.16;;;8.72;100.00
73651;BME280;61944;52.538;6.108;2023-04-30T04:09:07;102289.09;;;8.72;100.00
73651;BME280;61944;52.538;6.108;2023-04-30T04:11:32;102287.47;;;8.62;100.00
73651;BME280;61944;52.538;6.108;2023-04-30T04:13:59;102286.31;;;8.63;100.00
73651;BME280;61944;52.538;6.108;2023-04-30T04:16:24;102279.59;;;8.55;100.00
73651;BME280;61944;52.538;6.108;2023-04-30T04:18:50;102283.53;;;8.54;100.00
73651;BME280;61944;52.538;6.108;2023-04-30T04:21:16;102289.63;;;8.48;100.00
73651;BME280;61944;52.538;6.108;2023-04-30T04:23:41;102287.81;;;8.52;100.00
73651;BME280;61944;52.538;6.108;2023-04-30T04:26:06;102286.50;;;8.41;100.00
73651;BME280;61944;52.538;6.108;2023-04-30T04:28:32;102290.56;;;8.34;100.00
73651;BME280;61944;52.538;6.108;2023-04-30T04:30:57;102297.16;;;8.47;100.00
73651;BME280;61944;52.538;6.108;2023-04-30T04:33:23;102300.28;;;8.54;100.00
73651;BME280;61944;52.538;6.108;2023-04-30T04:35:49;102287.81;;;8.43;100.00
73651;BME280;61944;52.538;6.108;2023-04-30T04:38:14;102294.22;;;8.44;100.00
73651;BME280;61944;52.538;6.108;2023-04-30T04:40:39;102290.13;;;8.50;100.00
73651;BME280;61944;52.538;6.108;2023-04-30T04:43:08;102285.53;;;8.54;100.00
73651;BME280;61944;52.538;6.108;2023-04-30T04:45:33;102290.94;;;8.42;100.00
73651;BME280;61944;52.538;6.108;2023-04-30T04:47:59;102291.44;;;8.44;100.00
73651;BME280;61944;52.538;6.108;2023-04-30T04:50:25;102300.09;;;8.33;100.00
73651;BME280;61944;52.538;6.108;2023-04-30T04:52:50;102302.59;;;8.44;100.00
73651;BME280;61944;52.538;6.108;2023-04-30T04:55:16;102298.44;;;8.32;100.00
73651;BME280;61944;52.538;6.108;2023-04-30T04:57:41;102310.91;;;8.26;100.00
73651;BME280;61944;52.538;6.108;2023-04-30T05:00:07;102304.19;;;8.27;100.00
73651;BME280;61944;52.538;6.108;2023-04-30T05:02:34;102308.16;;;8.35;100.00
73651;BME280;61944;52.538;6.108;2023-04-30T05:04:59;102312.56;;;8.27;100.00
73651;BME280;61944;52.538;6.108;2023-04-30T05:07:25;102317.47;;;8.30;100.00
73651;BME280;61944;52.538;6.108;2023-04-30T05:09:51;102317.00;;;8.37;100.00
73651;BME280;61944;52.538;6.108;2023-04-30T05:12:16;102328.50;;;8.35;100.00
73651;BME280;61944;52.538;6.108;2023-04-30T05:14:42;102318.31;;;8.31;100.00
73651;BME280;61944;52.538;6.108;2023-04-30T05:17:08;102334.56;;;8.38;100.00
73651;BME280;61944;52.538;6.108;2023-04-30T05:19:33;102321.75;;;8.37;100.00
73651;BME280;61944;52.538;6.108;2023-04-30T05:22:01;102332.63;;;8.47;100.00
73651;BME280;61944;52.538;6.108;2023-04-30T05:24:28;102337.22;;;8.43;100.00
73651;BME280;61944;52.538;6.108;2023-04-30T05:26:53;102341.63;;;8.35;100.00
73651;BME280;61944;52.538;6.108;2023-04-30T05:29:19;102342.09;;;8.28;100.00
73651;BME280;61944;52.538;6.108;2023-04-30T05:31:44;102329.31;;;8.36;100.00
73651;BME280;61944;52.538;6.108;2023-04-30T05:34:09;102342.97;;;8.46;100.00
73651;BME280;61944;52.538;6.108;2023-04-30T05:36:35;102340.34;;;8.41;100.00
73651;BME280;61944;52.538;6.108;2023-04-30T05:39:00;102342.47;;;8.44;100.00
73651;BME280;61944;52.538;6.108;2023-04-30T05:41:25;102340.88;;;7.94;100.00
73651;BME280;61944;52.538;6.108;2023-04-30T05:43:51;102347.00;;;8.14;100.00
73651;BME280;61944;52.538;6.108;2023-04-30T05:46:16;102342.56;;;8.22;100.00
73651;BME280;61944;52.538;6.108;2023-04-30T05:48:42;102349.81;;;8.40;100.00
73651;BME280;61944;52.538;6.108;2023-04-30T05:51:07;102341.16;;;8.42;100.00
73651;BME280;61944;52.538;6.108;2023-04-30T05:53:33;102348.53;;;8.46;100.00
73651;BME280;61944;52.538;6.108;2023-04-30T05:55:59;102362.50;;;8.55;100.00
73651;BME280;61944;52.538;6.108;2023-04-30T05:58:24;102355.63;;;8.52;100.00
73651;BME280;61944;52.538;6.108;2023-04-30T06:00:50;102363.59;;;8.28;100.00
73651;BME280;61944;52.538;6.108;2023-04-30T06:03:18;102367.69;;;8.30;100.00
73651;BME280;61944;52.538;6.108;2023-04-30T06:05:45;102358.38;;;8.35;100.00
73651;BME280;61944;52.538;6.108;2023-04-30T06:08:11;102348.38;;;8.43;100.00
73651;BME280;61944;52.538;6.108;2023-04-30T06:10:37;102350.81;;;8.27;100.00
73651;BME280;61944;52.538;6.108;2023-04-30T06:13:03;102344.72;;;8.16;100.00
73651;BME280;61944;52.538;6.108;2023-04-30T06:15:29;102348.81;;;8.19;100.00
73651;BME280;61944;52.538;6.108;2023-04-30T06:17:58;102353.25;;;8.28;100.00
73651;BME280;61944;52.538;6.108;2023-04-30T06:20:23;102350.34;;;8.42;100.00
73651;BME280;61944;52.538;6.108;2023-04-30T06:22:48;102357.50;;;8.26;100.00
73651;BME280;61944;52.538;6.108;2023-04-30T06:25:14;102354.53;;;8.13;100.00
73651;BME280;61944;52.538;6.108;2023-04-30T06:27:39;102359.47;;;8.08;100.00
73651;BME280;61944;52.538;6.108;2023-04-30T06:30:05;102362.09;;;8.13;100.00
73651;BME280;61944;52.538;6.108;2023-04-30T06:32:31;102350.63;;;8.23;100.00
73651;BME280;61944;52.538;6.108;2023-04-30T06:34:57;102349.81;;;8.31;100.00
73651;BME280;61944;52.538;6.108;2023-04-30T06:37:22;102357.59;;;8.52;100.00
73651;BME280;61944;52.538;6.108;2023-04-30T06:39:48;102349.81;;;8.31;100.00
73651;BME280;61944;52.538;6.108;2023-04-30T06:42:13;102358.97;;;8.14;100.00
73651;BME280;61944;52.538;6.108;2023-04-30T06:44:39;102360.16;;;8.22;100.00
73651;BME280;61944;52.538;6.108;2023-04-30T06:47:04;102359.69;;;8.38;100.00
73651;BME280;61944;52.538;6.108;2023-04-30T06:49:29;102366.78;;;8.61;100.00
73651;BME280;61944;52.538;6.108;2023-04-30T06:51:55;102363.66;;;8.63;100.00
73651;BME280;61944;52.538;6.108;2023-04-30T06:54:23;102368.13;;;9.46;100.00
73651;BME280;61944;52.538;6.108;2023-04-30T06:56:50;102364.09;;;9.08;100.00
73651;BME280;61944;52.538;6.108;2023-04-30T06:59:15;102357.53;;;9.04;100.00
73651;BME280;61944;52.538;6.108;2023-04-30T07:01:41;102363.97;;;8.96;100.00
73651;BME280;61944;52.538;6.108;2023-04-30T07:04:07;102362.81;;;8.97;100.00
73651;BME280;61944;52.538;6.108;2023-04-30T07:06:32;102358.03;;;8.98;100.00
73651;BME280;61944;52.538;6.108;2023-04-30T07:08:58;102365.06;;;9.12;100.00
73651;BME280;61944;52.538;6.108;2023-04-30T07:11:23;102366.22;;;9.20;100.00
73651;BME280;61944;52.538;6.108;2023-04-30T07:13:48;102367.03;;;9.21;100.00
73651;BME280;61944;52.538;6.108;2023-04-30T07:16:14;102354.22;;;9.20;100.00
73651;BME280;61944;52.538;6.108;2023-04-30T07:18:41;102361.91;;;9.31;100.00
73651;BME280;61944;52.538;6.108;2023-04-30T07:21:06;102363.25;;;9.25;100.00
73651;BME280;61944;52.538;6.108;2023-04-30T07:23:33;102357.34;;;9.65;100.00
73651;BME280;61944;52.538;6.108;2023-04-30T07:26:00;102349.13;;;9.69;100.00
73651;BME280;61944;52.538;6.108;2023-04-30T07:28:25;102357.88;;;9.59;100.00
73651;BME280;61944;52.538;6.108;2023-04-30T07:30:50;102337.69;;;9.44;100.00
73651;BME280;61944;52.538;6.108;2023-04-30T07:33:17;102358.19;;;9.57;100.00
73651;BME280;61944;52.538;6.108;2023-04-30T07:35:42;102361.19;;;9.52;100.00
73651;BME280;61944;52.538;6.108;2023-04-30T07:38:08;102369.19;;;9.71;100.00
73651;BME280;61944;52.538;6.108;2023-04-30T07:40:33;102362.53;;;9.84;100.00
73651;BME280;61944;52.538;6.108;2023-04-30T07:42:58;102361.88;;;9.87;98.39
73651;BME280;61944;52.538;6.108;2023-04-30T07:45:24;102355.50;;;10.08;99.43
73651;BME280;61944;52.538;6.108;2023-04-30T07:47:49;102352.03;;;10.11;97.88
73651;BME280;61944;52.538;6.108;2023-04-30T07:50:14;102360.06;;;10.63;100.00
73651;BME280;61944;52.538;6.108;2023-04-30T07:52:41;102364.50;;;11.18;91.03
73651;BME280;61944;52.538;6.108;2023-04-30T07:55:07;102352.00;;;10.41;93.45
73651;BME280;61944;52.538;6.108;2023-04-30T07:57:32;102362.53;;;10.44;95.12
73651;BME280;61944;52.538;6.108;2023-04-30T07:59:57;102364.84;;;10.42;94.80
73651;BME280;61944;52.538;6.108;2023-04-30T08:02:23;102371.13;;;10.38;94.42
73651;BME280;61944;52.538;6.108;2023-04-30T08:04:48;102371.06;;;10.47;93.65
73651;BME280;61944;52.538;6.108;2023-04-30T08:07:14;102363.47;;;10.69;93.02
73651;BME280;61944;52.538;6.108;2023-04-30T08:09:42;102363.28;;;10.74;87.91
73651;BME280;61944;52.538;6.108;2023-04-30T08:12:08;102369.88;;;10.90;88.84
73651;BME280;61944;52.538;6.108;2023-04-30T08:14:33;102375.06;;;11.01;99.55
73651;BME280;61944;52.538;6.108;2023-04-30T08:16:59;102375.81;;;10.89;92.18
73651;BME280;61944;52.538;6.108;2023-04-30T08:19:25;102367.09;;;10.69;92.34
73651;BME280;61944;52.538;6.108;2023-04-30T08:21:50;102366.63;;;11.22;91.25
73651;BME280;61944;52.538;6.108;2023-04-30T08:24:16;102366.09;;;11.07;88.21
73651;BME280;61944;52.538;6.108;2023-04-30T08:26:41;102369.38;;;11.09;88.09
73651;BME280;61944;52.538;6.108;2023-04-30T08:29:12;102358.59;;;11.57;95.13
73651;BME280;61944;52.538;6.108;2023-04-30T08:31:37;102370.34;;;12.73;92.88
73651;BME280;61944;52.538;6.108;2023-04-30T08:34:03;102368.91;;;14.70;76.44
73651;BME280;61944;52.538;6.108;2023-04-30T08:36:28;102371.63;;;15.71;76.62
73651;BME280;61944;52.538;6.108;2023-04-30T08:38:54;102369.31;;;14.17;73.03
73651;BME280;61944;52.538;6.108;2023-04-30T08:41:21;102371.06;;;15.85;73.25
73651;BME280;61944;52.538;6.108;2023-04-30T08:43:51;102377.72;;;16.23;69.64
73651;BME280;61944;52.538;6.108;2023-04-30T08:46:19;102363.69;;;15.77;71.26
73651;BME280;61944;52.538;6.108;2023-04-30T08:48:44;102366.06;;;15.29;73.71
73651;BME280;61944;52.538;6.108;2023-04-30T08:51:12;102370.03;;;16.20;70.53
73651;BME280;61944;52.538;6.108;2023-04-30T08:53:39;102378.78;;;16.68;67.97
73651;BME280;61944;52.538;6.108;2023-04-30T08:56:09;102381.03;;;16.55;67.16
73651;BME280;61944;52.538;6.108;2023-04-30T08:58:34;102375.84;;;16.61;67.32
73651;BME280;61944;52.538;6.108;2023-04-30T09:01:00;102376.41;;;15.90;65.60
73651;BME280;61944;52.538;6.108;2023-04-30T09:03:25;102380.41;;;14.46;72.64
73651;BME280;61944;52.538;6.108;2023-04-30T09:05:53;102370.25;;;14.57;72.83
73651;BME280;61944;52.538;6.108;2023-04-30T09:08:39;102374.13;;;15.30;66.61
73651;BME280;61944;52.538;6.108;2023-04-30T09:13:45;102374.38;;;16.14;66.48
73651;BME280;61944;52.538;6.108;2023-04-30T09:16:11;102377.25;;;16.17;66.41
73651;BME280;61944;52.538;6.108;2023-04-30T09:18:40;102376.03;;;16.18;66.33
73651;BME280;61944;52.538;6.108;2023-04-30T09:21:06;102372.41;;;16.18;65.75
73651;BME280;61944;52.538;6.108;2023-04-30T09:23:33;102371.53;;;16.14;65.56
73651;BME280;61944;52.538;6.108;2023-04-30T09:25:59;102367.50;;;15.88;66.46
73651;BME280;61944;52.538;6.108;2023-04-30T09:28:25;102366.13;;;15.78;66.65
73651;BME280;61944;52.538;6.108;2023-04-30T09:30:55;102362.84;;;15.53;68.80
73651;BME280;61944;52.538;6.108;2023-04-30T09:33:20;102360.56;;;15.16;70.80
73651;BME280;61944;52.538;6.108;2023-04-30T09:35:46;102354.88;;;15.59;68.03
73651;BME280;61944;52.538;6.108;2023-04-30T09:38:31;102358.94;;;16.08;69.76
73651;BME280;61944;52.538;6.108;2023-04-30T09:40:58;102356.81;;;16.28;68.10
73651;BME280;61944;52.538;6.108;2023-04-30T09:43:24;102350.03;;;16.05;68.97
73651;BME280;61944;52.538;6.108;2023-04-30T09:45:50;102342.41;;;15.60;69.93
73651;BME280;61944;52.538;6.108;2023-04-30T09:48:21;102338.84;;;15.86;69.96
73651;BME280;61944;52.538;6.108;2023-04-30T09:50:47;102346.16;;;15.91;66.73
73651;BME280;61944;52.538;6.108;2023-04-30T09:53:13;102345.97;;;16.30;67.66
73651;BME280;61944;52.538;6.108;2023-04-30T09:55:42;102336.88;;;16.77;66.36
73651;BME280;61944;52.538;6.108;2023-04-30T09:58:09;102331.81;;;16.60;65.47
73651;BME280;61944;52.538;6.108;2023-04-30T10:00:36;102320.41;;;15.46;70.92
73651;BME280;61944;52.538;6.108;2023-04-30T10:03:06;102329.56;;;15.62;64.85
73651;BME280;61944;52.538;6.108;2023-04-30T10:05:45;102333.44;;;16.61;67.46
73651;BME280;61944;52.538;6.108;2023-04-30T10:08:26;102325.78;;;16.31;65.43
73651;BME280;61944;52.538;6.108;2023-04-30T10:11:02;102327.66;;;16.80;65.33
73651;BME280;61944;52.538;6.108;2023-04-30T10:13:31;102327.88;;;16.68;64.74
73651;BME280;61944;52.538;6.108;2023-04-30T10:16:06;102324.50;;;16.55;66.40
73651;BME280;61944;52.538;6.108;2023-04-30T10:18:34;102310.91;;;16.34;67.55
73651;BME280;61944;52.538;6.108;2023-04-30T10:21:02;102303.28;;;16.38;67.10
73651;BME280;61944;52.538;6.108;2023-04-30T10:23:35;102310.81;;;16.00;68.00
73651;BME280;61944;52.538;6.108;2023-04-30T10:26:01;102303.81;;;15.68;67.15
73651;BME280;61944;52.538;6.108;2023-04-30T10:28:28;102298.81;;;15.57;66.60
73651;BME280;61944;52.538;6.108;2023-04-30T10:30:55;102302.22;;;15.67;71.95
73651;BME280;61944;52.538;6.108;2023-04-30T10:33:48;102314.38;;;16.24;70.23
73651;BME280;61944;52.538;6.108;2023-04-30T10:36:27;102308.16;;;16.41;68.97
73651;BME280;61944;52.538;6.108;2023-04-30T10:38:55;102301.56;;;15.77;67.70
73651;BME280;61944;52.538;6.108;2023-04-30T10:41:22;102296.69;;;15.74;70.31
73651;BME280;61944;52.538;6.108;2023-04-30T10:43:47;102301.97;;;15.06;71.65
73651;BME280;61944;52.538;6.108;2023-04-30T10:46:23;102304.53;;;15.61;70.68
73651;BME280;61944;52.538;6.108;2023-04-30T10:48:49;102301.16;;;15.06;72.12
73651;BME280;61944;52.538;6.108;2023-04-30T10:51:18;102286.50;;;15.92;70.51
73651;BME280;61944;52.538;6.108;2023-04-30T10:53:44;102290.13;;;16.23;69.12
73651;BME280;61944;52.538;6.108;2023-04-30T10:56:11;102282.47;;;16.54;68.27
73651;BME280;61944;52.538;6.108;2023-04-30T10:58:43;102277.97;;;15.89;72.14
73651;BME280;61944;52.538;6.108;2023-04-30T11:01:15;102266.84;;;15.50;72.95
73651;BME280;61944;52.538;6.108;2023-04-30T11:04:07;102271.00;;;15.33;71.75
73651;BME280;61944;52.538;6.108;2023-04-30T11:06:54;102283.81;;;15.76;72.11
73651;BME280;61944;52.538;6.108;2023-04-30T11:09:34;102281.44;;;16.35;69.48
73651;BME280;61944;52.538;6.108;2023-04-30T11:12:08;102271.03;;;15.59;72.96
73651;BME280;61944;52.538;6.108;2023-04-30T11:14:39;102273.50;;;16.44;67.08
73651;BME280;61944;52.538;6.108;2023-04-30T11:17:05;102261.41;;;16.48;67.28
73651;BME280;61944;52.538;6.108;2023-04-30T11:19:34;102275.59;;;16.51;67.63
73651;BME280;61944;52.538;6.108;2023-04-30T11:27:26;102233.41;;;16.05;67.25
73651;BME280;61944;52.538;6.108;2023-04-30T11:30:08;102244.59;;;15.98;70.76
73651;BME280;61944;52.538;6.108;2023-04-30T11:32:54;102263.69;;;17.10;65.24
73651;BME280;61944;52.538;6.108;2023-04-30T11:39:09;102230.22;;;16.07;68.54
73651;BME280;61944;52.538;6.108;2023-04-30T11:41:42;102218.47;;;16.72;66.73
73651;BME280;61944;52.538;6.108;2023-04-30T11:47:22;102236.31;;;16.80;64.89
73651;BME280;61944;52.538;6.108;2023-04-30T11:49:50;102214.47;;;17.14;65.91
73651;BME280;61944;52.538;6.108;2023-04-30T11:52:23;102212.63;;;16.54;64.71
73651;BME280;61944;52.538;6.108;2023-04-30T11:54:54;102219.94;;;16.59;65.93
73651;BME280;61944;52.538;6.108;2023-04-30T11:57:21;102202.22;;;17.03;64.82
73651;BME280;61944;52.538;6.108;2023-04-30T12:00:06;102225.38;;;17.67;63.86
73651;BME280;61944;52.538;6.108;2023-04-30T12:02:35;102194.81;;;17.95;62.58
73651;BME280;61944;52.538;6.108;2023-04-30T12:08:31;102200.56;;;18.16;60.66
73651;BME280;61944;52.538;6.108;2023-04-30T12:10:58;102192.88;;;17.47;63.33
73651;BME280;61944;52.538;6.108;2023-04-30T12:13:23;102185.72;;;17.67;61.47
73651;BME280;61944;52.538;6.108;2023-04-30T12:16:00;102212.50;;;17.81;60.61
73651;BME280;61944;52.538;6.108;2023-04-30T12:18:49;102179.53;;;16.96;62.60
73651;BME280;61944;52.538;6.108;2023-04-30T12:21:51;102183.34;;;17.14;65.32
73651;BME280;61944;52.538;6.108;2023-04-30T12:24:35;102210.41;;;17.71;64.57
73651;BME280;61944;52.538;6.108;2023-04-30T12:27:07;102197.56;;;17.28;62.95
73651;BME280;61944;52.538;6.108;2023-04-30T12:29:33;102203.34;;;18.05;62.13
73651;BME280;61944;52.538;6.108;2023-04-30T12:31:58;102184.34;;;18.17;61.67
73651;BME280;61944;52.538;6.108;2023-04-30T12:34:25;102200.41;;;17.84;62.37
73651;BME280;61944;52.538;6.108;2023-04-30T12:37:04;102176.13;;;17.83;61.54
73651;BME280;61944;52.538;6.108;2023-04-30T12:39:40;102186.81;;;18.22;60.41
73651;BME280;61944;52.538;6.108;2023-04-30T12:44:52;102180.47;;;18.68;59.12
73651;BME280;61944;52.538;6.108;2023-04-30T12:47:17;102182.81;;;18.37;58.02
73651;BME280;61944;52.538;6.108;2023-04-30T12:49:44;102186.91;;;18.51;59.17
73651;BME280;61944;52.538;6.108;2023-04-30T12:52:12;102170.53;;;17.97;59.86
73651;BME280;61944;52.538;6.108;2023-04-30T12:54:39;102193.00;;;18.56;59.10
73651;BME280;61944;52.538;6.108;2023-04-30T12:57:09;102189.56;;;18.00;59.90
73651;BME280;61944;52.538;6.108;2023-04-30T13:02:21;102168.72;;;17.60;60.88
73651;BME280;61944;52.538;6.108;2023-04-30T13:04:48;102176.81;;;17.65;61.48
73651;BME280;61944;52.538;6.108;2023-04-30T13:07:14;102169.97;;;17.74;61.76
73651;BME280;61944;52.538;6.108;2023-04-30T13:09:39;102170.78;;;18.91;57.86
73651;BME280;61944;52.538;6.108;2023-04-30T13:12:05;102177.69;;;19.11;55.34
73651;BME280;61944;52.538;6.108;2023-04-30T13:14:31;102168.09;;;17.99;57.73
73651;BME280;61944;52.538;6.108;2023-04-30T13:16:56;102159.34;;;18.44;63.10
73651;BME280;61944;52.538;6.108;2023-04-30T13:19:22;102157.03;;;19.00;55.79
73651;BME280;61944;52.538;6.108;2023-04-30T13:21:47;102157.41;;;19.23;56.91
73651;BME280;61944;52.538;6.108;2023-04-30T13:24:13;102134.31;;;18.93;56.15
73651;BME280;61944;52.538;6.108;2023-04-30T13:26:39;102126.22;;;18.87;56.61
73651;BME280;61944;52.538;6.108;2023-04-30T13:29:04;102134.28;;;19.28;55.17
73651;BME280;61944;52.538;6.108;2023-04-30T13:31:30;102144.78;;;19.53;54.53
73651;BME280;61944;52.538;6.108;2023-04-30T13:33:55;102130.22;;;19.26;56.07
73651;BME280;61944;52.538;6.108;2023-04-30T13:36:21;102130.94;;;19.62;54.84
73651;BME280;61944;52.538;6.108;2023-04-30T13:38:46;102133.47;;;19.17;55.77